createdAt,value
2023-03-11T00:03:16.040Z,59.65
2023-03-11T00:06:42.324Z,60.14
2023-03-11T00:10:04.963Z,59.85
2023-03-11T00:13:27.522Z,59.90
2023-03-11T00:16:49.392Z,60.56
2023-03-11T00:20:18.128Z,60.16
2023-03-11T00:23:41.358Z,60.11
2023-03-11T00:27:04.210Z,59.41
2023-03-11T00:30:27.290Z,60.54
2023-03-11T00:33:49.227Z,59.89
2023-03-11T00:37:11.018Z,60.53
2023-03-11T00:40:37.200Z,60.22
2023-03-11T00:43:58.978Z,60.35
2023-03-11T00:47:20.674Z,59.89
2023-03-11T00:50:42.805Z,61.03
2023-03-11T00:54:05.245Z,60.42
2023-03-11T00:57:29.337Z,60.91
2023-03-11T01:00:51.590Z,61.12
2023-03-11T01:04:13.937Z,60.95
2023-03-11T01:07:36.274Z,61.55
2023-03-11T01:10:58.397Z,61.05
2023-03-11T01:14:22.357Z,61.67
2023-03-11T01:17:44.199Z,61.69
2023-03-11T01:21:06.538Z,61.56
2023-03-11T01:24:28.566Z,61.48
2023-03-11T01:27:50.662Z,62.00
2023-03-11T01:31:14.432Z,62.12
2023-03-11T01:34:36.393Z,61.78
2023-03-11T01:37:59.030Z,62.11
2023-03-11T01:41:21.169Z,62.47
2023-03-11T01:44:43.238Z,62.31
2023-03-11T01:48:06.460Z,62.01
2023-03-11T01:51:32.838Z,61.71
2023-03-11T01:54:54.958Z,62.39
2023-03-11T01:58:21.045Z,63.14
2023-03-11T02:01:50.886Z,62.55
2023-03-11T02:05:14.315Z,62.54
2023-03-11T02:08:36.231Z,62.08
2023-03-11T02:11:59.407Z,62.09
2023-03-11T02:15:21.687Z,61.60
2023-03-11T02:18:44.711Z,61.76
2023-03-11T02:22:09.106Z,62.05
2023-03-11T02:25:38.527Z,61.77
2023-03-11T02:29:02.708Z,62.69
2023-03-11T02:32:25.428Z,61.99
2023-03-11T02:35:47.343Z,62.20
2023-03-11T02:39:10.619Z,62.09
2023-03-11T02:42:34.524Z,61.97
2023-03-11T02:45:58.415Z,63.09
2023-03-11T02:49:22.144Z,63.54
2023-03-11T02:52:44.154Z,62.46
2023-03-11T02:56:06.606Z,63.84
2023-03-11T02:59:29.032Z,63.63
2023-03-11T03:02:52.474Z,64.05
2023-03-11T03:06:14.666Z,63.61
2023-03-11T03:09:37.639Z,64.59
2023-03-11T03:12:59.440Z,63.98
2023-03-11T03:16:21.164Z,63.86
2023-03-11T03:19:44.860Z,64.86
2023-03-11T03:23:06.999Z,64.45
2023-03-11T03:26:29.435Z,64.81
2023-03-11T03:29:51.582Z,65.62
2023-03-11T03:33:13.865Z,66.02
2023-03-11T03:36:37.414Z,66.40
2023-03-11T03:39:59.569Z,66.24
2023-03-11T03:43:21.381Z,66.53
2023-03-11T03:46:43.650Z,66.56
2023-03-11T03:50:06.522Z,67.07
2023-03-11T03:53:29.927Z,66.64
2023-03-11T03:56:52.136Z,67.05
2023-03-11T04:00:16.001Z,66.53
2023-03-11T04:03:39.212Z,67.39
2023-03-11T04:07:01.002Z,67.50
2023-03-11T04:10:24.143Z,67.59
2023-03-11T04:13:46.230Z,68.17
2023-03-11T04:17:08.212Z,67.60
2023-03-11T04:20:30.080Z,68.06
2023-03-11T04:23:51.952Z,67.08
2023-03-11T04:27:16.807Z,68.64
2023-03-11T04:30:38.551Z,68.29
2023-03-11T04:34:01.157Z,68.99
2023-03-11T04:37:23.419Z,68.28
2023-03-11T04:40:45.702Z,68.75
2023-03-11T04:44:08.965Z,69.63
2023-03-11T04:47:31.067Z,69.63
2023-03-11T04:50:52.890Z,69.43
2023-03-11T04:54:16.409Z,69.41
2023-03-11T04:57:38.730Z,70.49
2023-03-11T05:01:02.066Z,69.87
2023-03-11T05:04:24.274Z,70.11
2023-03-11T05:07:46.707Z,71.16
2023-03-11T05:11:09.019Z,70.80
2023-03-11T05:14:30.908Z,71.55
2023-03-11T05:17:54.453Z,71.43
2023-03-11T05:21:17.007Z,71.63
2023-03-11T05:24:39.805Z,71.51
2023-03-11T05:28:01.595Z,71.98
2023-03-11T05:31:23.537Z,72.09
2023-03-11T05:34:46.960Z,72.24
2023-03-11T05:38:09.033Z,71.95
2023-03-11T05:41:31.094Z,72.58
2023-03-11T05:44:52.934Z,72.18
2023-03-11T05:48:14.984Z,72.15
2023-03-11T05:51:38.290Z,72.33
2023-03-11T05:55:00.393Z,71.47
2023-03-11T05:58:22.153Z,72.14
2023-03-11T06:01:44.311Z,71.97
2023-03-11T06:05:08.525Z,71.95
2023-03-11T06:08:34.516Z,71.78
2023-03-11T06:11:56.684Z,71.42
2023-03-11T06:15:18.501Z,71.54
2023-03-11T06:18:40.101Z,71.10
2023-03-11T06:22:01.874Z,70.69
2023-03-11T06:25:25.131Z,70.79
2023-03-11T06:28:48.253Z,71.02
2023-03-11T06:32:10.217Z,71.04
2023-03-11T06:35:32.227Z,71.29
2023-03-11T06:38:54.643Z,71.23
2023-03-11T06:42:17.989Z,71.04
2023-03-11T06:45:40.094Z,71.79
2023-03-11T06:49:04.910Z,71.57
2023-03-11T06:52:28.180Z,71.41
2023-03-11T06:56:00.759Z,72.34
2023-03-11T06:59:24.230Z,72.19
2023-03-11T07:02:46.269Z,72.33
2023-03-11T07:06:12.510Z,72.38
2023-03-11T07:09:34.234Z,72.31
2023-03-11T07:12:56.230Z,72.28
2023-03-11T07:16:21.138Z,72.40
2023-03-11T07:19:42.864Z,72.58
2023-03-11T07:23:04.652Z,72.25
2023-03-11T07:26:27.912Z,73.38
2023-03-11T07:29:49.866Z,73.47
2023-03-11T07:33:14.034Z,73.79
2023-03-11T07:36:35.784Z,74.13
2023-03-11T07:39:57.681Z,73.95
2023-03-11T07:43:19.784Z,73.68
2023-03-11T07:46:42.398Z,73.18
2023-03-11T07:50:06.044Z,72.94
2023-03-11T07:53:28.177Z,73.49
2023-03-11T07:56:50.227Z,73.18
2023-03-11T08:00:13.237Z,73.73
2023-03-11T08:03:35.742Z,74.25
2023-03-11T08:06:58.970Z,74.50
2023-03-11T08:10:20.986Z,73.89
2023-03-11T08:13:43.806Z,74.39
2023-03-11T08:17:05.793Z,75.39
2023-03-11T08:20:28.305Z,74.83
2023-03-11T08:23:52.216Z,75.28
2023-03-11T08:27:14.595Z,75.18
2023-03-11T08:30:38.051Z,75.62
2023-03-11T08:34:02.801Z,76.34
2023-03-11T08:37:25.186Z,75.69
2023-03-11T08:40:48.983Z,76.39
2023-03-11T08:44:11.222Z,76.50
2023-03-11T08:47:36.801Z,76.84
2023-03-11T08:50:59.049Z,77.66
2023-03-11T08:54:21.600Z,76.92
2023-03-11T08:57:45.318Z,77.82
2023-03-11T09:01:09.312Z,77.33
2023-03-11T09:04:31.528Z,77.99
2023-03-11T09:07:53.843Z,78.21
2023-03-11T09:11:25.588Z,78.08
2023-03-11T09:14:50.906Z,78.07
2023-03-11T09:18:14.060Z,77.88
2023-03-11T09:21:36.456Z,78.46
2023-03-11T09:24:58.956Z,79.09
2023-03-11T09:28:20.931Z,79.01
2023-03-11T09:31:43.953Z,78.80
2023-03-11T09:35:06.590Z,79.06
2023-03-11T09:38:28.730Z,79.20
2023-03-11T09:41:58.684Z,79.14
2023-03-11T09:45:25.561Z,79.05
2023-03-11T09:48:54.967Z,78.79
2023-03-11T09:52:19.232Z,79.08
2023-03-11T09:55:46.036Z,78.85
2023-03-11T09:59:16.152Z,78.79
2023-03-11T10:02:38.927Z,78.89
2023-03-11T10:06:13.350Z,78.82
2023-03-11T10:09:39.609Z,78.68
2023-03-11T10:13:13.341Z,78.77
2023-03-11T10:16:44.699Z,78.99
2023-03-11T10:20:16.971Z,78.12
2023-03-11T10:23:57.139Z,78.40
2023-03-11T10:27:24.707Z,79.47
2023-03-11T10:30:50.556Z,80.07
2023-03-11T10:34:21.897Z,80.12
2023-03-11T10:37:50.237Z,79.47
2023-03-11T10:41:20.918Z,80.77
2023-03-11T10:44:43.902Z,80.74
2023-03-11T10:48:11.576Z,81.21
2023-03-11T10:51:36.360Z,80.39
2023-03-11T10:55:03.107Z,80.97
2023-03-11T10:58:29.039Z,80.43
2023-03-11T11:01:56.875Z,80.91
2023-03-11T11:05:38.073Z,80.63
2023-03-11T11:09:14.533Z,81.10
2023-03-11T11:12:36.625Z,81.39
2023-03-11T11:16:02.446Z,82.15
2023-03-11T11:19:24.664Z,82.15
2023-03-11T11:22:52.469Z,82.70
2023-03-11T11:26:20.758Z,83.13
2023-03-11T11:29:43.106Z,83.19
2023-03-11T11:33:13.409Z,83.57
2023-03-11T11:36:38.931Z,83.78
2023-03-11T11:40:11.200Z,85.03
2023-03-11T11:43:42.418Z,84.42
2023-03-11T11:47:14.294Z,85.73
2023-03-11T11:50:42.205Z,85.87
2023-03-11T11:54:18.367Z,85.80
2023-03-11T11:57:40.808Z,85.76
2023-03-11T12:01:15.162Z,86.55
2023-03-11T12:04:51.905Z,86.61
2023-03-11T12:08:19.498Z,87.01
2023-03-11T12:11:51.918Z,87.16
2023-03-11T12:15:20.410Z,87.49
2023-03-11T12:18:49.187Z,87.88
2023-03-11T12:22:48.078Z,88.58
2023-03-11T12:26:17.758Z,88.26
2023-03-11T12:29:45.918Z,88.95
2023-03-11T12:33:15.820Z,89.49
2023-03-11T12:36:40.511Z,89.51
2023-03-11T12:40:41.274Z,88.94
2023-03-11T12:44:05.894Z,88.70
2023-03-11T12:47:29.961Z,89.22
2023-03-11T12:50:51.639Z,89.14
2023-03-11T12:54:30.800Z,89.28
2023-03-11T12:58:01.904Z,89.10
2023-03-11T13:01:42.514Z,89.21
2023-03-11T13:05:20.346Z,88.83
2023-03-11T13:08:48.674Z,89.20
2023-03-11T13:12:40.240Z,89.09
2023-03-11T13:16:39.318Z,88.95
2023-03-11T13:20:01.248Z,88.94
2023-03-11T13:23:36.069Z,89.01
2023-03-11T13:27:06.766Z,89.07
2023-03-11T13:30:35.816Z,89.32
2023-03-11T13:34:03.645Z,89.52
2023-03-11T13:37:35.876Z,89.34
2023-03-11T13:40:59.985Z,89.33
2023-03-11T13:44:30.623Z,89.09
2023-03-11T13:47:55.498Z,88.89
2023-03-11T13:51:21.946Z,89.06
2023-03-11T13:54:50.003Z,89.38
2023-03-11T13:58:22.845Z,88.63
2023-03-11T14:01:50.564Z,89.60
2023-03-11T14:05:16.851Z,89.53
2023-03-11T14:08:40.238Z,89.74
2023-03-11T14:12:07.914Z,89.66
2023-03-11T14:15:41.641Z,89.54
2023-03-11T14:19:08.821Z,89.06
2023-03-11T14:22:30.908Z,89.68
2023-03-11T14:26:00.571Z,89.85
2023-03-11T14:29:28.252Z,89.80
2023-03-11T14:33:00.949Z,89.95
2023-03-11T14:36:22.869Z,90.20
2023-03-11T14:39:46.345Z,90.21
2023-03-11T14:43:13.182Z,90.08
2023-03-11T14:46:35.116Z,90.01
2023-03-11T14:50:00.117Z,90.12
2023-03-11T14:53:27.980Z,89.81
2023-03-11T14:56:57.586Z,90.14
2023-03-11T15:00:23.897Z,90.43
2023-03-11T15:03:50.265Z,90.32
2023-03-11T15:07:21.148Z,90.30
2023-03-11T15:11:03.360Z,90.71
2023-03-11T15:14:26.939Z,91.03
2023-03-11T15:17:54.317Z,90.93
2023-03-11T15:21:18.355Z,91.44
2023-03-11T15:24:41.745Z,91.09
2023-03-11T15:28:21.357Z,90.94
2023-03-11T15:31:47.758Z,91.15
2023-03-11T15:35:19.421Z,90.87
2023-03-11T15:38:41.193Z,90.68
2023-03-11T15:42:15.581Z,90.29
2023-03-11T15:45:38.007Z,90.61
2023-03-11T15:48:59.765Z,90.55
2023-03-11T15:52:21.790Z,90.92
2023-03-11T15:55:43.509Z,91.07
2023-03-11T15:59:07.102Z,90.55
2023-03-11T16:02:31.034Z,90.91
2023-03-11T16:05:52.687Z,90.45
2023-03-11T16:09:15.080Z,90.89
2023-03-11T16:12:37.223Z,90.78
2023-03-11T16:16:01.178Z,90.90
2023-03-11T16:19:24.052Z,91.56
2023-03-11T16:22:46.815Z,91.58
2023-03-11T16:26:11.233Z,91.80
2023-03-11T16:29:33.662Z,92.90
2023-03-11T16:32:56.921Z,93.09
2023-03-11T16:36:19.142Z,93.20
2023-03-11T16:39:41.754Z,93.29
2023-03-11T16:43:05.287Z,93.46
2023-03-11T16:46:28.006Z,93.22
2023-03-11T16:49:53.613Z,93.24
2023-03-11T16:53:17.702Z,93.88
2023-03-11T16:56:41.712Z,93.84
2023-03-11T17:00:05.621Z,94.15
2023-03-11T17:03:31.566Z,93.68
2023-03-11T17:06:57.744Z,94.06
2023-03-11T17:10:19.990Z,93.73
2023-03-11T17:13:41.732Z,94.62
2023-03-11T17:17:03.764Z,93.78
2023-03-11T17:20:25.736Z,94.39
2023-03-11T17:23:48.894Z,94.20
2023-03-11T17:27:10.976Z,94.49
2023-03-11T17:30:37.292Z,93.90
2023-03-11T17:34:00.277Z,93.66
2023-03-11T17:37:22.424Z,94.15
2023-03-11T17:40:45.574Z,94.40
2023-03-11T17:44:07.949Z,94.59
2023-03-11T17:47:29.960Z,95.78
2023-03-11T17:50:51.642Z,96.66
2023-03-11T17:54:13.340Z,96.86
2023-03-11T17:57:45.125Z,96.65
2023-03-11T18:01:08.861Z,96.83
2023-03-11T18:04:30.898Z,97.34
2023-03-11T18:07:52.767Z,97.24
2023-03-11T18:11:18.745Z,97.38
2023-03-11T18:14:42.531Z,96.90
2023-03-11T18:18:04.730Z,97.08
2023-03-11T18:21:28.742Z,97.33
2023-03-11T18:24:50.572Z,97.39
2023-03-11T18:28:12.267Z,97.42
2023-03-11T18:31:35.532Z,97.65
2023-03-11T18:34:57.193Z,98.11
2023-03-11T18:38:18.913Z,97.71
2023-03-11T18:41:42.321Z,98.22
2023-03-11T18:45:04.217Z,98.33
2023-03-11T18:48:27.628Z,98.03
2023-03-11T18:51:49.368Z,98.27
2023-03-11T18:55:11.537Z,98.10
2023-03-11T18:58:33.709Z,98.08
2023-03-11T19:01:55.456Z,98.71
2023-03-11T19:05:18.826Z,98.25
2023-03-11T19:08:41.407Z,98.74
2023-03-11T19:12:03.205Z,98.81
2023-03-11T19:15:24.890Z,98.41
2023-03-11T19:18:47.168Z,98.69
2023-03-11T19:22:10.625Z,98.24
2023-03-11T19:25:33.190Z,98.22
2023-03-11T19:28:55.046Z,98.22
2023-03-11T19:32:17.422Z,98.42
2023-03-11T19:35:39.359Z,98.38
2023-03-11T19:39:02.509Z,98.39
2023-03-11T19:42:24.581Z,99.15
2023-03-11T19:45:51.567Z,99.00
2023-03-11T19:49:13.369Z,98.69
2023-03-11T19:52:36.239Z,98.56
2023-03-11T19:56:00.316Z,97.80
2023-03-11T19:59:22.320Z,98.11
2023-03-11T20:02:44.767Z,98.46
2023-03-11T20:06:07.725Z,98.28
2023-03-11T20:09:29.644Z,97.65
2023-03-11T20:13:02.207Z,97.74
2023-03-11T20:16:24.760Z,98.55
2023-03-11T20:19:46.687Z,98.19
2023-03-11T20:23:08.559Z,97.48
2023-03-11T20:26:30.021Z,97.30
2023-03-11T20:29:53.585Z,97.87
2023-03-11T20:33:15.358Z,97.56
2023-03-11T20:36:37.355Z,97.36
2023-03-11T20:39:59.208Z,97.83
2023-03-11T20:43:21.054Z,97.62
2023-03-11T20:46:44.603Z,97.27
2023-03-11T20:50:07.828Z,97.37
2023-03-11T20:53:30.660Z,96.89
2023-03-11T20:56:52.441Z,96.35
2023-03-11T21:00:16.262Z,96.16
2023-03-11T21:03:40.040Z,96.09
2023-03-11T21:07:02.808Z,96.24
2023-03-11T21:10:25.197Z,96.16
2023-03-11T21:13:47.344Z,96.13
2023-03-11T21:17:09.376Z,95.95
2023-03-11T21:20:32.713Z,95.46
2023-03-11T21:23:55.606Z,95.61
2023-03-11T21:27:17.868Z,95.53
2023-03-11T21:30:39.679Z,96.09
2023-03-11T21:34:03.224Z,95.50
2023-03-11T21:37:27.336Z,95.39
2023-03-11T21:40:49.603Z,95.99
2023-03-11T21:44:12.576Z,95.85
2023-03-11T21:47:34.793Z,95.45
2023-03-11T21:50:56.835Z,95.56
2023-03-11T21:54:20.363Z,95.57
2023-03-11T21:57:42.307Z,95.36
2023-03-11T22:01:04.716Z,95.82
2023-03-11T22:04:27.102Z,95.86
2023-03-11T22:07:49.176Z,96.14
2023-03-11T22:11:17.969Z,96.40
2023-03-11T22:14:39.698Z,96.50
2023-03-11T22:18:01.391Z,96.71
2023-03-11T22:21:23.251Z,97.73
2023-03-11T22:24:44.854Z,97.88
2023-03-11T22:28:10.451Z,98.15
2023-03-11T22:31:32.355Z,98.32
2023-03-11T22:34:53.995Z,98.18
2023-03-11T22:38:15.888Z,97.46
2023-03-11T22:41:38.974Z,97.96
2023-03-11T22:45:02.616Z,98.70
2023-03-11T22:48:24.678Z,98.31
2023-03-11T22:51:47.431Z,98.86
2023-03-11T22:55:09.872Z,98.14
2023-03-11T22:58:31.601Z,98.59
2023-03-11T23:01:54.803Z,98.24
2023-03-11T23:05:17.513Z,97.70
2023-03-11T23:08:39.383Z,98.37
2023-03-11T23:12:03.956Z,98.34
2023-03-11T23:15:25.819Z,98.90
2023-03-11T23:18:51.511Z,98.72
2023-03-11T23:22:13.709Z,99.19
2023-03-11T23:25:36.715Z,99.82
2023-03-11T23:28:58.710Z,100.00
2023-03-11T23:32:20.599Z,100.00
2023-03-11T23:35:44.089Z,99.18
2023-03-11T23:39:06.265Z,99.62
2023-03-11T23:42:28.320Z,99.32
2023-03-11T23:45:50.547Z,99.77
2023-03-11T23:49:12.287Z,99.81
2023-03-11T23:52:35.730Z,99.73
2023-03-11T23:55:57.747Z,99.52
2023-03-11T23:59:19.697Z,100.00
